Wetterdaten: Woche 20.07.09 - 26.07.09 (KW30)
Datum Zeit Temp. A. Feuchte A. Luftdruck Regen Wind Richtung Taupunkt Windchill Windben
20.07.2009 00:00 14,8 C 75 % 1019,0 hPa 0,0 l/m 0,4 km/h N 10,5 C 14,8 C 3,6 km/h
20.07.2009 01:00 13,2 C 83 % 1019,3 hPa 0,0 l/m 0,0 km/h N 10,3 C 13,2 C 1,2 km/h
20.07.2009 02:00 16,9 C 65 % 1019,4 hPa 0,0 l/m 0,4 km/h N 10,4 C 16,9 C 4,0 km/h
20.07.2009 03:00 14,7 C 74 % 1019,7 hPa 0,0 l/m 0,3 km/h N 10,1 C 14,7 C 2,4 km/h
20.07.2009 04:00 12,0 C 86 % 1019,8 hPa 0,0 l/m 0,0 km/h N 9,7 C 12,0 C 0,0 km/h
20.07.2009 05:00 11,4 C 89 % 1020,0 hPa 0,0 l/m 0,0 km/h N 9,6 C 11,4 C 0,4 km/h
20.07.2009 06:00 14,2 C 81 % 1019,9 hPa 0,0 l/m 0,1 km/h N 10,9 C 14,2 C 1,2 km/h
20.07.2009 07:00 16,7 C 75 % 1020,0 hPa 0,0 l/m 0,0 km/h N 12,1 C 16,7 C 1,2 km/h
20.07.2009 08:00 18,9 C 68 % 1020,0 hPa 0,0 l/m 0,1 km/h N 12,7 C 18,9 C 1,6 km/h
20.07.2009 09:00 19,3 C 69 % 1020,2 hPa 0,0 l/m 0,1 km/h N 13,4 C 19,3 C 2,0 km/h
20.07.2009 10:00 19,4 C 67 % 1020,3 hPa 0,0 l/m 0,0 km/h N 13,0 C 19,4 C 0,8 km/h
20.07.2009 11:00 19,5 C 68 % 1020,3 hPa 0,0 l/m 0,0 km/h N 13,5 C 19,5 C 0,0 km/h
20.07.2009 12:00 20,2 C 65 % 1020,4 hPa 0,0 l/m 0,1 km/h NW 13,3 C 20,2 C 1,2 km/h
20.07.2009 13:00 19,3 C 75 % 1020,2 hPa 0,0 l/m 2,1 km/h N 14,7 C 19,3 C 7,2 km/h
20.07.2009 14:00 21,4 C 68 % 1019,5 hPa 0,0 l/m 1,4 km/h N 15,1 C 21,4 C 4,4 km/h
20.07.2009 15:00 23,1 C 57 % 1019,0 hPa 0,0 l/m 0,8 km/h O-SO 14,1 C 23,1 C 4,8 km/h
20.07.2009 16:00 23,4 C 56 % 1018,6 hPa 0,0 l/m 1,6 km/h S 14,0 C 23,4 C 6,0 km/h
20.07.2009 17:00 24,1 C 54 % 1018,2 hPa 0,0 l/m 1,4 km/h S-SW 14,2 C 24,1 C 7,6 km/h
20.07.2009 18:00 23,9 C 48 % 1017,8 hPa 0,0 l/m 2,0 km/h SW 12,3 C 23,9 C 10,1 km/h
20.07.2009 19:00 23,3 C 52 % 1017,6 hPa 0,0 l/m 1,4 km/h S-SW 12,8 C 23,3 C 6,0 km/h
20.07.2009 20:00 21,5 C 62 % 1017,9 hPa 0,0 l/m 1,3 km/h SW 13,8 C 21,5 C 5,3 km/h
20.07.2009 21:00 20,1 C 70 % 1018,3 hPa 0,0 l/m 0,5 km/h SW 14,4 C 20,1 C 4,4 km/h
20.07.2009 22:00 20,0 C 70 % 1018,7 hPa 0,0 l/m 2,0 km/h SW 14,4 C 20,0 C 6,4 km/h
20.07.2009 23:00 19,1 C 74 % 1019,0 hPa 0,0 l/m 0,3 km/h N 14,3 C 19,1 C 3,6 km/h
21.07.2009 00:00 17,9 C 78 % 1019,3 hPa 0,0 l/m 0,1 km/h N 14,0 C 17,9 C 2,4 km/h
21.07.2009 01:00 16,7 C 81 % 1019,0 hPa 0,0 l/m 0,2 km/h N 13,4 C 16,7 C 2,0 km/h
21.07.2009 02:00 16,4 C 81 % 1018,9 hPa 0,0 l/m 0,3 km/h N 13,1 C 16,4 C 3,6 km/h
21.07.2009 03:00 14,7 C 87 % 1018,9 hPa 0,0 l/m 0,0 km/h N 12,5 C 14,7 C 0,8 km/h
21.07.2009 04:00 14,9 C 85 % 1018,7 hPa 0,0 l/m 0,1 km/h N 12,4 C 14,9 C 2,0 km/h
21.07.2009 05:00 15,2 C 82 % 1018,4 hPa 0,0 l/m 0,3 km/h N 12,2 C 15,2 C 4,0 km/h
21.07.2009 06:00 15,2 C 83 % 1018,3 hPa 0,0 l/m 0,2 km/h N 12,4 C 15,2 C 3,6 km/h
21.07.2009 07:00 17,1 C 78 % 1018,3 hPa 0,0 l/m 0,1 km/h N 13,2 C 17,1 C 1,6 km/h
21.07.2009 08:00 19,1 C 76 % 1018,4 hPa 0,0 l/m 0,0 km/h N 14,8 C 19,1 C 0,4 km/h
21.07.2009 09:00 20,4 C 73 % 1018,1 hPa 0,0 l/m 0,1 km/h N 15,5 C 20,4 C 1,6 km/h
21.07.2009 10:00 21,8 C 69 % 1017,8 hPa 0,0 l/m 0,0 km/h N 15,8 C 21,8 C 3,2 km/h
21.07.2009 11:00 23,8 C 63 % 1017,7 hPa 0,0 l/m 0,0 km/h S-SO 16,3 C 23,8 C 8,0 km/h
21.07.2009 12:00 25,2 C 61 % 1017,1 hPa 0,0 l/m 1,6 km/h O-SO 17,0 C 25,2 C 6,4 km/h
21.07.2009 13:00 26,0 C 55 % 1016,7 hPa 0,0 l/m 1,6 km/h O 16,1 C 26,0 C 4,8 km/h
21.07.2009 14:00 26,8 C 57 % 1016,1 hPa 0,0 l/m 1,6 km/h O 17,4 C 26,8 C 6,4 km/h
21.07.2009 15:00 27,3 C 55 % 1015,5 hPa 0,0 l/m 1,6 km/h O-SO 17,4 C 27,3 C 4,8 km/h
21.07.2009 16:00 29,4 C 49 % 1014,9 hPa 0,0 l/m 1,6 km/h SW 17,4 C 29,4 C 12,1 km/h
21.07.2009 17:00 29,5 C 45 % 1014,3 hPa 0,0 l/m 2,0 km/h W-SW 16,1 C 29,5 C 9,1 km/h
21.07.2009 18:00 28,9 C 47 % 1014,0 hPa 0,0 l/m 1,6 km/h S 16,3 C 28,9 C 6,8 km/h
21.07.2009 19:00 28,0 C 51 % 1013,8 hPa 0,0 l/m 0,3 km/h N 16,9 C 28,0 C 3,6 km/h
21.07.2009 20:00 26,4 C 60 % 1013,6 hPa 0,0 l/m 1,2 km/h SW 17,8 C 26,4 C 6,4 km/h
21.07.2009 21:00 23,9 C 71 % 1013,7 hPa 0,0 l/m 0,7 km/h S-SW 18,1 C 23,9 C 4,0 km/h
21.07.2009 22:00 22,1 C 77 % 1013,8 hPa 0,0 l/m 0,1 km/h N 17,8 C 22,1 C 2,8 km/h
21.07.2009 23:00 21,3 C 78 % 1013,8 hPa 0,0 l/m 0,3 km/h N 17,3 C 21,3 C 3,2 km/h
22.07.2009 00:00 19,4 C 83 % 1013,9 hPa 0,0 l/m 0,0 km/h N 16,5 C 19,4 C 1,2 km/h
22.07.2009 01:00 19,7 C 83 % 1013,5 hPa 0,0 l/m 0,3 km/h N 16,7 C 19,7 C 3,2 km/h
22.07.2009 02:00 19,0 C 84 % 1013,0 hPa 0,0 l/m 0,2 km/h N 16,2 C 19,0 C 2,8 km/h
22.07.2009 03:00 17,9 C 86 % 1012,5 hPa 0,0 l/m 0,0 km/h N 15,6 C 17,9 C 0,4 km/h
22.07.2009 04:00 16,8 C 90 % 1012,5 hPa 0,0 l/m 0,0 km/h N 15,0 C 16,8 C 0,0 km/h
22.07.2009 05:00 16,4 C 90 % 1012,2 hPa 0,0 l/m 0,0 km/h N 14,8 C 16,4 C 0,8 km/h
22.07.2009 06:00 17,3 C 87 % 1012,3 hPa 0,0 l/m 0,0 km/h N 15,1 C 17,3 C 0,8 km/h
22.07.2009 07:00 19,2 C 83 % 1012,3 hPa 0,0 l/m 0,0 km/h N 16,2 C 19,2 C 1,2 km/h
22.07.2009 08:00 20,7 C 80 % 1012,4 hPa 0,0 l/m 0,1 km/h N 17,2 C 20,7 C 1,6 km/h
22.07.2009 09:00 22,8 C 76 % 1012,2 hPa 0,0 l/m 0,3 km/h O-NO 18,3 C 22,8 C 2,0 km/h
22.07.2009 10:00 24,9 C 69 % 1011,9 hPa 0,0 l/m 1,0 km/h O-NO 18,8 C 24,9 C 3,6 km/h
22.07.2009 11:00 26,1 C 68 % 1011,6 hPa 0,0 l/m 0,6 km/h S 19,6 C 26,1 C 3,6 km/h
22.07.2009 12:00 27,9 C 63 % 1011,4 hPa 0,0 l/m 1,3 km/h O 20,2 C 27,9 C 8,0 km/h
22.07.2009 13:00 28,6 C 64 % 1011,0 hPa 0,0 l/m 1,0 km/h N 21,2 C 28,6 C 4,0 km/h
22.07.2009 14:00 29,6 C 60 % 1010,8 hPa 0,0 l/m 1,5 km/h O 20,9 C 29,6 C 4,8 km/h
22.07.2009 15:00 30,8 C 54 % 1010,4 hPa 0,0 l/m 1,6 km/h NO 20,4 C 30,8 C 5,2 km/h
22.07.2009 16:00 31,4 C 51 % 1010,1 hPa 0,0 l/m 1,5 km/h O-SO 20,0 C 31,4 C 6,0 km/h
22.07.2009 17:00 31,3 C 50 % 1009,8 hPa 0,0 l/m 1,2 km/h O-SO 19,5 C 31,3 C 4,4 km/h
22.07.2009 18:00 30,6 C 53 % 1009,2 hPa 0,0 l/m 0,6 km/h O-SO 19,9 C 30,6 C 3,2 km/h
22.07.2009 19:00 29,9 C 56 % 1008,9 hPa 0,0 l/m 0,3 km/h N 20,2 C 29,9 C 3,6 km/h
22.07.2009 20:00 27,0 C 69 % 1009,2 hPa 0,0 l/m 0,0 km/h N 20,7 C 27,0 C 0,4 km/h
22.07.2009 21:00 25,2 C 76 % 1009,6 hPa 0,0 l/m 0,1 km/h N 20,7 C 25,2 C 2,4 km/h
22.07.2009 22:00 24,7 C 76 % 1009,9 hPa 0,0 l/m 0,7 km/h S-SW 20,2 C 24,7 C 5,6 km/h
22.07.2009 23:00 24,4 C 75 % 1010,0 hPa 0,0 l/m 0,8 km/h SW 19,6 C 24,4 C 5,2 km/h
23.07.2009 00:00 25,3 C 64 % 1009,9 hPa 0,0 l/m 1,3 km/h SW 17,9 C 25,3 C 7,7 km/h
23.07.2009 01:00 22,5 C 77 % 1009,6 hPa 0,0 l/m 0,0 km/h N 18,2 C 22,5 C 0,8 km/h
23.07.2009 02:00 22,1 C 77 % 1009,4 hPa 0,0 l/m 0,2 km/h N 17,9 C 22,1 C 4,4 km/h
23.07.2009 03:00 20,3 C 83 % 1009,3 hPa 0,0 l/m 0,0 km/h N 17,3 C 20,3 C 0,4 km/h
23.07.2009 04:00 19,7 C 85 % 1009,3 hPa 0,0 l/m 0,0 km/h N 17,1 C 19,7 C 0,4 km/h
23.07.2009 05:00 18,8 C 88 % 1009,5 hPa 0,0 l/m 0,0 km/h N 16,7 C 18,8 C 0,0 km/h
23.07.2009 06:00 19,5 C 86 % 1009,4 hPa 0,0 l/m 0,0 km/h N 17,1 C 19,5 C 0,4 km/h
23.07.2009 07:00 21,5 C 85 % 1009,2 hPa 0,0 l/m 0,0 km/h N 18,8 C 21,5 C 0,8 km/h
23.07.2009 08:00 23,7 C 80 % 1009,1 hPa 0,0 l/m 0,1 km/h N 19,9 C 23,7 C 1,6 km/h
23.07.2009 09:00 25,8 C 72 % 1008,8 hPa 0,0 l/m 0,8 km/h O-SO 20,2 C 25,8 C 5,6 km/h
23.07.2009 10:00 27,2 C 69 % 1008,5 hPa 0,0 l/m 1,5 km/h O 20,9 C 27,2 C 4,8 km/h
23.07.2009 11:00 29,2 C 61 % 1008,0 hPa 0,0 l/m 1,3 km/h O-NO 20,9 C 29,2 C 6,8 km/h
23.07.2009 12:00 30,3 C 58 % 1007,2 hPa 0,0 l/m 2,1 km/h O-SO 21,2 C 30,3 C 8,0 km/h
23.07.2009 13:00 31,5 C 54 % 1006,7 hPa 0,0 l/m 2,3 km/h W-NW 21,1 C 31,5 C 9,6 km/h
23.07.2009 14:00 32,6 C 51 % 1006,2 hPa 0,0 l/m 2,3 km/h NO 21,1 C 32,6 C 10,1 km/h
23.07.2009 15:00 32,9 C 48 % 1005,5 hPa 0,0 l/m 3,0 km/h O-SO 20,4 C 32,9 C 10,9 km/h
23.07.2009 16:00 33,1 C 47 % 1004,7 hPa 0,0 l/m 2,3 km/h NO 20,1 C 33,1 C 8,9 km/h
23.07.2009 17:00 32,7 C 49 % 1003,8 hPa 0,0 l/m 2,0 km/h O 20,4 C 32,7 C 6,4 km/h
23.07.2009 18:00 31,9 C 52 % 1002,6 hPa 0,0 l/m 1,4 km/h O 20,8 C 31,9 C 5,2 km/h
23.07.2009 19:00 30,7 C 54 % 1001,7 hPa 0,0 l/m 0,8 km/h O-SO 20,3 C 30,7 C 3,6 km/h
23.07.2009 20:00 29,3 C 58 % 1002,1 hPa 0,0 l/m 2,7 km/h NW 20,2 C 29,3 C 10,0 km/h
23.07.2009 21:00 27,7 C 62 % 1003,6 hPa 0,0 l/m 2,3 km/h O-NO 19,8 C 27,7 C 6,5 km/h
23.07.2009 22:00 23,3 C 74 % 1008,0 hPa 2,6 l/m 15,4 km/h N-NW 18,2 C 20,8 C 39,5 km/h
23.07.2009 23:00 19,5 C 85 % 1010,8 hPa 3,2 l/m 10,4 km/h NW 16,9 C 18,2 C 28,2 km/h
24.07.2009 00:00 19,6 C 83 % 1011,9 hPa 0,0 l/m 4,4 km/h SW 16,7 C 19,6 C 20,5 km/h
24.07.2009 01:00 20,6 C 72 % 1011,7 hPa 0,0 l/m 8,0 km/h W 15,4 C 19,9 C 27,4 km/h
24.07.2009 02:00 22,3 C 60 % 1011,1 hPa 0,0 l/m 11,1 km/h W-SW 14,2 C 20,8 C 36,6 km/h
24.07.2009 03:00 22,9 C 57 % 1011,5 hPa 0,0 l/m 9,0 km/h NW 14,0 C 22,1 C 30,1 km/h
24.07.2009 04:00 22,4 C 59 % 1011,8 hPa 0,0 l/m 7,1 km/h SW 14,0 C 22,1 C 29,0 km/h
24.07.2009 05:00 22,2 C 60 % 1012,1 hPa 0,0 l/m 6,9 km/h SO 14,1 C 22,0 C 22,5 km/h
24.07.2009 06:00 22,4 C 60 % 1012,4 hPa 0,0 l/m 7,2 km/h S-SO 14,2 C 22,1 C 28,2 km/h
24.07.2009 07:00 22,5 C 61 % 1013,2 hPa 0,0 l/m 5,5 km/h S-SO 14,5 C 22,5 C 22,5 km/h
24.07.2009 08:00 23,4 C 60 % 1014,0 hPa 0,0 l/m 3,2 km/h S 15,1 C 23,4 C 10,5 km/h
24.07.2009 09:00 24,3 C 58 % 1014,5 hPa 0,0 l/m 3,6 km/h S-SO 15,4 C 24,3 C 17,3 km/h
24.07.2009 10:00 24,4 C 57 % 1015,0 hPa 0,0 l/m 5,1 km/h W-NW 15,2 C 24,3 C 18,5 km/h
24.07.2009 11:00 26,1 C 52 % 1014,8 hPa 0,0 l/m 5,4 km/h S-SW 15,5 C 26,1 C 22,5 km/h
24.07.2009 12:00 27,0 C 50 % 1014,7 hPa 0,0 l/m 5,9 km/h W 15,6 C 26,9 C 19,3 km/h
24.07.2009 13:00 26,0 C 49 % 1014,7 hPa 0,0 l/m 4,4 km/h S-SW 14,5 C 26,0 C 16,9 km/h
24.07.2009 14:00 26,1 C 49 % 1014,4 hPa 0,0 l/m 2,8 km/h S-SW 14,5 C 26,1 C 11,3 km/h
24.07.2009 15:00 25,5 C 52 % 1014,3 hPa 0,0 l/m 1,2 km/h S-SW 14,9 C 25,5 C 7,2 km/h
24.07.2009 16:00 25,1 C 56 % 1014,2 hPa 0,0 l/m 0,9 km/h W-NW 15,5 C 25,1 C 4,0 km/h
24.07.2009 17:00 24,8 C 59 % 1013,9 hPa 0,0 l/m 0,3 km/h N 16,1 C 24,8 C 3,6 km/h
24.07.2009 18:00 24,3 C 58 % 1013,7 hPa 0,0 l/m 0,4 km/h N 15,5 C 24,3 C 3,6 km/h
24.07.2009 19:00 24,0 C 59 % 1013,1 hPa 0,0 l/m 0,3 km/h N 15,4 C 24,0 C 3,6 km/h
24.07.2009 20:00 20,9 C 81 % 1013,2 hPa 0,6 l/m 0,3 km/h N 17,4 C 20,9 C 3,2 km/h
24.07.2009 21:00 19,6 C 82 % 1013,3 hPa 1,6 l/m 0,2 km/h W-SW 16,4 C 19,6 C 3,2 km/h
24.07.2009 22:00 17,8 C 85 % 1015,2 hPa 1,6 l/m 1,6 km/h S 15,3 C 17,8 C 13,3 km/h
24.07.2009 23:00 16,8 C 89 % 1016,2 hPa 3,3 l/m 1,7 km/h N-NW 15,0 C 16,8 C 6,0 km/h
25.07.2009 00:00 16,5 C 90 % 1017,2 hPa 0,3 l/m 2,6 km/h N-NW 14,8 C 16,5 C 8,9 km/h
25.07.2009 01:00 16,5 C 90 % 1017,2 hPa 1,3 l/m 0,5 km/h N 14,9 C 16,5 C 6,0 km/h
25.07.2009 02:00 16,2 C 92 % 1017,0 hPa 0,3 l/m 0,2 km/h W-SW 14,8 C 16,2 C 3,2 km/h
25.07.2009 03:00 16,8 C 88 % 1016,1 hPa 2,0 l/m 2,0 km/h S-SO 14,8 C 16,8 C 10,9 km/h
25.07.2009 04:00 16,4 C 89 % 1016,1 hPa 1,3 l/m 0,2 km/h N 14,5 C 16,4 C 4,0 km/h
25.07.2009 05:00 16,5 C 86 % 1015,5 hPa 2,6 l/m 1,6 km/h SW 14,0 C 16,5 C 9,7 km/h
25.07.2009 06:00 17,7 C 75 % 1015,4 hPa 1,3 l/m 7,6 km/h W 13,2 C 17,1 C 29,8 km/h
25.07.2009 07:00 18,4 C 73 % 1016,3 hPa 0,0 l/m 8,6 km/h W 13,5 C 17,4 C 26,6 km/h
25.07.2009 08:00 18,4 C 73 % 1017,0 hPa 2,7 l/m 7,4 km/h W-SW 13,4 C 18,0 C 26,2 km/h
25.07.2009 09:00 18,6 C 72 % 1017,5 hPa 0,0 l/m 5,5 km/h S-SO 13,5 C 18,3 C 20,1 km/h
25.07.2009 10:00 19,1 C 69 % 1017,8 hPa 0,0 l/m 5,0 km/h NW 13,3 C 19,1 C 18,9 km/h
25.07.2009 11:00 20,1 C 62 % 1018,0 hPa 0,0 l/m 7,3 km/h W-NW 12,7 C 19,7 C 28,6 km/h
25.07.2009 12:00 21,4 C 58 % 1018,1 hPa 0,0 l/m 8,9 km/h W-SW 12,7 C 20,5 C 26,1 km/h
25.07.2009 13:00 21,9 C 56 % 1018,3 hPa 0,0 l/m 10,0 km/h SW 12,6 C 20,7 C 29,4 km/h
25.07.2009 14:00 22,6 C 53 % 1018,4 hPa 0,0 l/m 8,3 km/h W-NW 12,6 C 22,0 C 30,2 km/h
25.07.2009 15:00 22,4 C 55 % 1018,8 hPa 0,0 l/m 7,9 km/h SW 12,9 C 21,9 C 26,2 km/h
25.07.2009 16:00 22,5 C 52 % 1018,9 hPa 0,0 l/m 5,8 km/h S 12,1 C 22,5 C 23,3 km/h
25.07.2009 17:00 20,3 C 61 % 1019,5 hPa 0,0 l/m 5,2 km/h SW 12,5 C 20,2 C 18,5 km/h
25.07.2009 18:00 20,5 C 59 % 1019,3 hPa 0,0 l/m 4,4 km/h NW 12,2 C 20,5 C 16,1 km/h
25.07.2009 19:00 19,9 C 60 % 1019,9 hPa 0,0 l/m 4,2 km/h SW 11,9 C 19,9 C 16,9 km/h
25.07.2009 20:00 19,0 C 65 % 1020,6 hPa 0,6 l/m 3,5 km/h W-SW 12,2 C 19,0 C 19,3 km/h
25.07.2009 21:00 18,4 C 62 % 1021,1 hPa 0,0 l/m 4,1 km/h SW 10,9 C 18,4 C 18,9 km/h
25.07.2009 22:00 18,0 C 63 % 1021,6 hPa 0,0 l/m 4,0 km/h N-NO 10,7 C 18,0 C 18,1 km/h
25.07.2009 23:00 17,9 C 64 % 1021,8 hPa 0,0 l/m 4,6 km/h S-SO 11,0 C 17,9 C 19,3 km/h
26.07.2009 00:00 17,1 C 65 % 1022,0 hPa 0,0 l/m 2,5 km/h NO 10,4 C 17,1 C 14,1 km/h
26.07.2009 01:00 16,8 C 68 % 1021,9 hPa 0,0 l/m 1,5 km/h SW 10,7 C 16,8 C 10,4 km/h
26.07.2009 02:00 16,6 C 68 % 1021,8 hPa 0,0 l/m 1,9 km/h O-SO 10,6 C 16,6 C 8,9 km/h
26.07.2009 03:00 16,3 C 70 % 1021,9 hPa 0,0 l/m 1,3 km/h SO 10,7 C 16,3 C 10,0 km/h
26.07.2009 04:00 16,1 C 70 % 1022,1 hPa 0,0 l/m 2,1 km/h NW 10,7 C 16,1 C 11,7 km/h
26.07.2009 05:00 15,8 C 70 % 1022,3 hPa 0,0 l/m 1,3 km/h SW 10,4 C 15,8 C 6,0 km/h
26.07.2009 06:00 16,3 C 70 % 1022,4 hPa 0,0 l/m 1,4 km/h N-NO 10,8 C 16,3 C 8,8 km/h
26.07.2009 07:00 17,0 C 68 % 1022,6 hPa 0,0 l/m 1,9 km/h W-SW 11,1 C 17,0 C 8,9 km/h
26.07.2009 08:00 17,9 C 66 % 1022,6 hPa 0,0 l/m 3,6 km/h S-SO 11,5 C 17,9 C 11,3 km/h
26.07.2009 09:00 18,5 C 64 % 1022,5 hPa 0,0 l/m 5,6 km/h NW 11,4 C 18,1 C 15,3 km/h
26.07.2009 10:00 19,6 C 61 % 1022,2 hPa 0,0 l/m 5,6 km/h O-SO 11,7 C 19,6 C 16,5 km/h
26.07.2009 11:00 21,3 C 57 % 1021,7 hPa 0,0 l/m 4,7 km/h SO 12,5 C 21,2 C 15,3 km/h
26.07.2009 12:00 22,4 C 52 % 1021,3 hPa 0,0 l/m 5,8 km/h N-NW 12,0 C 22,4 C 19,3 km/h
26.07.2009 13:00 21,8 C 54 % 1021,3 hPa 0,0 l/m 6,1 km/h W-NW 12,1 C 21,6 C 20,5 km/h
26.07.2009 14:00 21,4 C 56 % 1021,0 hPa 0,0 l/m 4,5 km/h SW 12,2 C 21,4 C 15,3 km/h
26.07.2009 15:00 22,5 C 53 % 1020,6 hPa 0,0 l/m 4,0 km/h N-NW 12,3 C 22,5 C 14,1 km/h
26.07.2009 16:00 23,2 C 50 % 1020,5 hPa 0,0 l/m 4,2 km/h N-NO 12,3 C 23,2 C 12,5 km/h
26.07.2009 17:00 23,4 C 49 % 1020,0 hPa 0,0 l/m 3,5 km/h NW 12,1 C 23,4 C 13,3 km/h
26.07.2009 18:00 22,6 C 51 % 1019,8 hPa 0,0 l/m 3,2 km/h NW 12,0 C 22,6 C 10,9 km/h
26.07.2009 19:00 21,9 C 54 % 1019,7 hPa 0,0 l/m 1,8 km/h NW 12,2 C 21,9 C 5,6 km/h
26.07.2009 20:00 20,1 C 63 % 1019,8 hPa 0,0 l/m 0,2 km/h N 12,8 C 20,1 C 2,0 km/h
26.07.2009 21:00 17,4 C 72 % 1020,3 hPa 0,0 l/m 0,0 km/h N 12,2 C 17,4 C 0,8 km/h
26.07.2009 22:00 17,1 C 72 % 1020,3 hPa 0,0 l/m 1,4 km/h SW 12,1 C 17,1 C 6,8 km/h
26.07.2009 23:00 16,9 C 73 % 1020,2 hPa 0,0 l/m 0,5 km/h N 12,0 C 16,9 C 5,2 km/h
Min-Datum _ 20.07.09 21.07.09 23.07.09 - 20.07.09 - 20.07.09 20.07.09 20.07.09
_ Min-Zeit 05:45 17:30 19:30 - 00:45 - 05:30 05:30 00:45
Minimum _ 11,1 C 41 % 1001,5 hPa - 0,0 km/h - 9,3 C 11,2 C 0,0 km/h
Max-Datum _ 23.07.09 25.07.09 26.07.09 24.07.09 23.07.09 - 22.07.09 23.07.09 23.07.09
_ Max-Zeit 15:45 02:15 07:15 23:00 22:45 - 13:45 15:30 22:15
Maximum _ 33,8 C 92 % 1022,7 hPa 3,3 l/m 24,9 km/h
N-NW
- 22,1 C 33,4 C 49,9 km/h
N-NW
Durchschnitt _ 21,8 C 67 % 1015,3 hPa #25,4 l/m 2,3 km/h NW 15,1 C 21,7 C 9,2 km/h